createdAt,value
2023-01-07T00:01:40.163Z,100800.38
2023-01-07T00:04:10.869Z,100801.19
2023-01-07T00:06:40.801Z,100795.63
2023-01-07T00:09:11.752Z,100795.97
2023-01-07T00:11:40.960Z,100796.25
2023-01-07T00:14:10.783Z,100791.97
2023-01-07T00:16:38.587Z,100788.22
2023-01-07T00:19:07.315Z,100786.72
2023-01-07T00:21:34.934Z,100802.28
2023-01-07T00:24:05.289Z,100801.72
2023-01-07T00:26:37.211Z,100799.28
2023-01-07T00:29:05.568Z,100800.09
2023-01-07T00:31:36.846Z,100790.16
2023-01-07T00:34:04.346Z,100784.38
2023-01-07T00:36:50.545Z,100789.66
2023-01-07T00:39:20.551Z,100794.00
2023-01-07T00:42:07.021Z,100793.47
2023-01-07T00:44:34.434Z,100792.78
2023-01-07T00:47:01.627Z,100802.88
2023-01-07T00:49:29.244Z,100801.31
2023-01-07T00:51:56.261Z,100798.81
2023-01-07T00:54:24.625Z,100802.19
2023-01-07T00:56:51.674Z,100799.69
2023-01-07T00:59:18.545Z,100796.13
2023-01-07T01:01:46.080Z,100793.84
2023-01-07T01:04:13.212Z,100785.69
2023-01-07T01:06:40.049Z,100782.53
2023-01-07T01:09:07.162Z,100784.84
2023-01-07T01:11:34.224Z,100783.19
2023-01-07T01:14:01.118Z,100784.91
2023-01-07T01:16:28.028Z,100792.38
2023-01-07T01:18:55.000Z,100787.25
2023-01-07T01:21:22.139Z,100804.59
2023-01-07T01:23:49.089Z,100809.34
2023-01-07T01:26:17.504Z,100805.44
2023-01-07T01:28:46.056Z,100813.81
2023-01-07T01:31:17.371Z,100813.25
2023-01-07T01:33:55.118Z,100809.28
2023-01-07T01:36:22.918Z,100816.81
2023-01-07T01:38:51.873Z,100817.66
2023-01-07T01:41:19.123Z,100823.63
2023-01-07T01:43:49.024Z,100826.63
2023-01-07T01:46:29.225Z,100825.75
2023-01-07T01:49:11.803Z,100837.09
2023-01-07T01:51:43.130Z,100840.94
2023-01-07T01:54:14.479Z,100839.38
2023-01-07T01:56:48.238Z,100841.09
2023-01-07T01:59:24.971Z,100847.78
2023-01-07T02:01:54.361Z,100848.31
2023-01-07T02:04:24.621Z,100858.28
2023-01-07T02:07:05.285Z,100872.34
2023-01-07T02:09:34.063Z,100867.53
2023-01-07T02:12:09.124Z,100871.56
2023-01-07T02:14:46.592Z,100860.47
2023-01-07T02:17:33.399Z,100875.31
2023-01-07T02:20:12.284Z,100882.16
2023-01-07T02:23:07.218Z,100880.72
2023-01-07T02:25:54.336Z,100884.78
2023-01-07T02:28:45.995Z,100880.56
2023-01-07T02:31:23.619Z,100875.59
2023-01-07T02:33:53.646Z,100888.25
2023-01-07T02:36:24.515Z,100889.25
2023-01-07T02:39:00.386Z,100886.78
2023-01-07T02:41:33.047Z,100893.94
2023-01-07T02:44:25.175Z,100895.03
2023-01-07T02:47:05.274Z,100901.47
2023-01-07T02:49:32.225Z,100899.13
2023-01-07T02:52:18.064Z,100900.63
2023-01-07T02:54:48.593Z,100909.00
2023-01-07T02:57:35.805Z,100911.09
2023-01-07T03:00:18.022Z,100913.50
2023-01-07T03:03:10.021Z,100924.00
2023-01-07T03:06:01.144Z,100923.41
2023-01-07T03:09:14.626Z,100932.69
2023-01-07T03:12:33.778Z,100934.78
2023-01-07T03:15:18.441Z,100933.72
2023-01-07T03:18:13.519Z,100939.47
2023-01-07T03:20:44.719Z,100935.25
2023-01-07T03:23:14.933Z,100944.44
2023-01-07T03:25:46.683Z,100938.47
2023-01-07T03:28:19.209Z,100928.44
2023-01-07T03:30:48.236Z,100946.69
2023-01-07T03:33:20.201Z,100944.44
2023-01-07T03:35:49.731Z,100941.88
2023-01-07T03:38:19.371Z,100937.59
2023-01-07T03:40:46.654Z,100945.69
2023-01-07T03:43:18.217Z,100942.56
2023-01-07T03:45:46.305Z,100954.06
2023-01-07T03:48:13.436Z,100954.06
2023-01-07T03:50:40.411Z,100954.06
2023-01-07T03:53:07.674Z,100951.44
2023-01-07T03:55:36.946Z,100951.19
2023-01-07T03:58:03.945Z,100954.72
2023-01-07T04:00:30.859Z,100958.34
2023-01-07T04:03:06.112Z,100963.56
2023-01-07T04:05:37.735Z,100965.91
2023-01-07T04:08:05.128Z,100966.34
2023-01-07T04:10:35.942Z,100975.03
2023-01-07T04:13:03.156Z,100960.50
2023-01-07T04:15:30.294Z,100964.81
2023-01-07T04:17:57.345Z,100968.41
2023-01-07T04:20:25.080Z,100976.66
2023-01-07T04:22:52.141Z,100976.66
2023-01-07T04:25:19.185Z,100979.38
2023-01-07T04:27:46.377Z,100977.09
2023-01-07T04:30:13.422Z,100982.78
2023-01-07T04:32:40.441Z,100974.53
2023-01-07T04:35:07.700Z,100985.19
2023-01-07T04:37:34.695Z,100978.91
2023-01-07T04:40:02.466Z,100973.78
2023-01-07T04:42:33.936Z,100976.13
2023-01-07T04:45:01.148Z,100975.34
2023-01-07T04:47:28.057Z,100975.88
2023-01-07T04:49:55.872Z,100988.41
2023-01-07T04:52:23.075Z,100982.44
2023-01-07T04:54:50.414Z,100991.50
2023-01-07T04:57:17.397Z,100985.69
2023-01-07T04:59:45.483Z,100992.75
2023-01-07T05:02:13.289Z,100999.91
2023-01-07T05:04:40.409Z,101003.97
2023-01-07T05:07:07.784Z,100997.19
2023-01-07T05:09:34.765Z,101006.59
2023-01-07T05:12:01.774Z,101011.97
2023-01-07T05:14:29.778Z,101013.84
2023-01-07T05:16:57.413Z,101015.16
2023-01-07T05:19:27.265Z,101024.72
2023-01-07T05:21:54.475Z,101021.81
2023-01-07T05:24:21.991Z,101031.00
2023-01-07T05:26:49.000Z,101029.59
2023-01-07T05:29:18.180Z,101025.66
2023-01-07T05:31:47.172Z,101027.09
2023-01-07T05:34:14.721Z,101038.78
2023-01-07T05:36:43.391Z,101041.88
2023-01-07T05:39:10.567Z,101047.13
2023-01-07T05:41:38.292Z,101044.22
2023-01-07T05:44:06.296Z,101044.22
2023-01-07T05:46:33.303Z,101049.84
2023-01-07T05:49:00.284Z,101054.16
2023-01-07T05:51:27.224Z,101055.06
2023-01-07T05:53:55.155Z,101061.88
2023-01-07T05:56:22.325Z,101071.59
2023-01-07T05:58:49.198Z,101071.22
2023-01-07T06:01:16.106Z,101071.22
2023-01-07T06:03:43.200Z,101077.59
2023-01-07T06:06:10.136Z,101075.19
2023-01-07T06:08:38.169Z,101087.47
2023-01-07T06:11:06.658Z,101088.09
2023-01-07T06:13:34.181Z,101083.28
2023-01-07T06:16:09.049Z,101083.88
2023-01-07T06:18:36.617Z,101078.69
2023-01-07T06:21:04.107Z,101094.63
2023-01-07T06:23:31.535Z,101090.56
2023-01-07T06:25:58.552Z,101094.84
2023-01-07T06:28:25.445Z,101106.91
2023-01-07T06:30:52.534Z,101106.91
2023-01-07T06:33:19.514Z,101108.44
2023-01-07T06:35:46.853Z,101121.22
2023-01-07T06:38:14.005Z,101125.53
2023-01-07T06:40:40.970Z,101129.88
2023-01-07T06:43:07.956Z,101129.03
2023-01-07T06:45:34.897Z,101139.53
2023-01-07T06:48:02.460Z,101133.16
2023-01-07T06:50:29.579Z,101133.47
2023-01-07T06:52:57.014Z,101142.19
2023-01-07T06:55:24.235Z,101134.56
2023-01-07T06:57:51.271Z,101136.47
2023-01-07T07:00:18.247Z,101141.53
2023-01-07T07:02:45.973Z,101137.63
2023-01-07T07:05:12.945Z,101140.88
2023-01-07T07:07:40.003Z,101142.84
2023-01-07T07:10:08.423Z,101146.00
2023-01-07T07:12:36.713Z,101144.00
2023-01-07T07:15:05.495Z,101139.88
2023-01-07T07:17:32.764Z,101138.00
2023-01-07T07:19:59.717Z,101149.19
2023-01-07T07:22:27.044Z,101154.13
2023-01-07T07:24:53.941Z,101160.09
2023-01-07T07:27:20.883Z,101168.34
2023-01-07T07:29:47.724Z,101173.66
2023-01-07T07:32:14.616Z,101176.53
2023-01-07T07:34:41.519Z,101183.88
2023-01-07T07:37:08.424Z,101189.66
2023-01-07T07:39:35.345Z,101192.31
2023-01-07T07:42:04.245Z,101200.78
2023-01-07T07:44:31.255Z,101212.03
2023-01-07T07:46:58.344Z,101200.38
2023-01-07T07:49:25.287Z,101201.63
2023-01-07T07:51:52.171Z,101205.50
2023-01-07T07:54:19.209Z,101210.06
2023-01-07T07:56:46.139Z,101216.97
2023-01-07T07:59:13.017Z,101208.69
2023-01-07T08:01:45.784Z,101220.13
2023-01-07T08:04:15.713Z,101217.75
2023-01-07T08:06:43.024Z,101220.75
2023-01-07T08:09:09.902Z,101224.78
2023-01-07T08:11:36.799Z,101225.09
2023-01-07T08:14:03.834Z,101229.88
2023-01-07T08:16:30.876Z,101232.59
2023-01-07T08:18:59.342Z,101229.00
2023-01-07T08:21:26.311Z,101232.75
2023-01-07T08:23:53.430Z,101230.25
2023-01-07T08:26:20.552Z,101230.75
2023-01-07T08:28:47.513Z,101223.94
2023-01-07T08:31:14.643Z,101222.09
2023-01-07T08:33:41.596Z,101219.47
2023-01-07T08:36:21.996Z,101222.22
2023-01-07T08:38:54.444Z,101222.47
2023-01-07T08:41:23.271Z,101228.69
2023-01-07T08:43:50.958Z,101225.34
2023-01-07T08:46:18.071Z,101220.19
2023-01-07T08:48:45.154Z,101225.31
2023-01-07T08:51:12.005Z,101224.03
2023-01-07T08:53:39.044Z,101232.16
2023-01-07T08:56:06.168Z,101230.75
2023-01-07T08:58:33.238Z,101230.34
2023-01-07T09:01:06.169Z,101225.56
2023-01-07T09:03:34.005Z,101237.97
2023-01-07T09:06:01.094Z,101232.75
2023-01-07T09:08:28.095Z,101230.50
2023-01-07T09:10:56.270Z,101228.03
2023-01-07T09:13:23.412Z,101236.97
2023-01-07T09:15:50.298Z,101238.78
2023-01-07T09:18:17.367Z,101243.22
2023-01-07T09:20:44.999Z,101237.78
2023-01-07T09:23:11.917Z,101236.72
2023-01-07T09:25:38.894Z,101228.78
2023-01-07T09:28:05.769Z,101245.94
2023-01-07T09:30:32.688Z,101243.16
2023-01-07T09:32:59.610Z,101245.53
2023-01-07T09:35:26.756Z,101245.94
2023-01-07T09:37:53.871Z,101245.72
2023-01-07T09:40:31.237Z,101251.06
2023-01-07T09:43:08.895Z,101248.91
2023-01-07T09:45:58.258Z,101247.28
2023-01-07T09:48:31.563Z,101249.16
2023-01-07T09:51:07.528Z,101247.13
2023-01-07T09:53:44.163Z,101252.16
2023-01-07T09:56:20.382Z,101247.59
2023-01-07T09:58:48.770Z,101252.34
2023-01-07T10:01:39.893Z,101253.53
2023-01-07T10:04:12.825Z,101255.38
2023-01-07T10:06:48.771Z,101254.41
2023-01-07T10:09:34.407Z,101268.41
2023-01-07T10:12:21.212Z,101264.34
2023-01-07T10:15:11.229Z,101261.47
2023-01-07T10:17:41.387Z,101258.59
2023-01-07T10:20:14.314Z,101257.81
2023-01-07T10:22:51.430Z,101265.16
2023-01-07T10:25:26.661Z,101255.06
2023-01-07T10:27:56.216Z,101252.63
2023-01-07T10:30:27.067Z,101251.19
2023-01-07T10:33:05.762Z,101259.41
2023-01-07T10:35:35.207Z,101265.41
2023-01-07T10:38:05.575Z,101269.44
2023-01-07T10:40:43.751Z,101270.59
2023-01-07T10:43:19.856Z,101279.06
2023-01-07T10:45:52.696Z,101274.50
2023-01-07T10:48:37.294Z,101277.25
2023-01-07T10:51:04.215Z,101282.56
2023-01-07T10:54:08.313Z,101279.81
2023-01-07T10:56:47.996Z,101284.56
2023-01-07T10:59:17.453Z,101279.13
2023-01-07T11:02:03.879Z,101276.69
2023-01-07T11:04:30.958Z,101276.81
2023-01-07T11:07:07.192Z,101276.06
2023-01-07T11:09:38.329Z,101274.25
2023-01-07T11:12:20.383Z,101271.44
2023-01-07T11:14:49.420Z,101268.72
2023-01-07T11:17:34.625Z,101276.31
2023-01-07T11:20:01.664Z,101274.84
2023-01-07T11:22:32.427Z,101270.59
2023-01-07T11:25:02.277Z,101276.50
2023-01-07T11:27:35.690Z,101269.97
2023-01-07T11:30:20.040Z,101282.91
2023-01-07T11:33:19.146Z,101275.97
2023-01-07T11:35:54.778Z,101277.69
2023-01-07T11:38:31.008Z,101287.91
2023-01-07T11:41:00.828Z,101293.28
2023-01-07T11:43:39.080Z,101298.13
2023-01-07T11:46:21.161Z,101292.53
2023-01-07T11:48:52.841Z,101299.47
2023-01-07T11:51:24.693Z,101299.97
2023-01-07T11:53:59.226Z,101293.47
2023-01-07T11:56:33.532Z,101300.16
2023-01-07T11:59:23.416Z,101298.59
2023-01-07T12:01:56.495Z,101301.88
2023-01-07T12:04:30.830Z,101303.25
2023-01-07T12:07:01.576Z,101302.78
2023-01-07T12:09:35.181Z,101303.50
2023-01-07T12:12:40.144Z,101312.84
2023-01-07T12:15:21.520Z,101313.56
2023-01-07T12:17:56.226Z,101318.59
2023-01-07T12:20:35.308Z,101324.63
2023-01-07T12:23:30.605Z,101317.56
2023-01-07T12:26:18.747Z,101324.94
2023-01-07T12:29:03.986Z,101323.84
2023-01-07T12:32:19.146Z,101323.34
2023-01-07T12:35:15.104Z,101313.59
2023-01-07T12:37:56.782Z,101319.22
2023-01-07T12:40:33.475Z,101319.81
2023-01-07T12:43:11.577Z,101316.22
2023-01-07T12:46:00.415Z,101318.19
2023-01-07T12:48:36.875Z,101320.81
2023-01-07T12:51:26.735Z,101319.22
2023-01-07T12:54:00.598Z,101331.22
2023-01-07T12:56:43.561Z,101330.28
2023-01-07T12:59:48.991Z,101332.94
2023-01-07T13:02:25.123Z,101339.34
2023-01-07T13:05:10.367Z,101337.16
2023-01-07T13:07:47.787Z,101327.97
2023-01-07T13:10:38.783Z,101330.44
2023-01-07T13:13:15.840Z,101335.59
2023-01-07T13:15:42.877Z,101334.63
2023-01-07T13:18:18.188Z,101335.88
2023-01-07T13:21:03.956Z,101340.81
2023-01-07T13:23:55.353Z,101344.63
2023-01-07T13:26:43.696Z,101346.19
2023-01-07T13:29:25.738Z,101326.91
2023-01-07T13:32:20.022Z,101350.66
2023-01-07T13:34:52.883Z,101357.88
2023-01-07T13:37:32.001Z,101350.69
2023-01-07T13:40:04.781Z,101357.84
2023-01-07T13:42:55.380Z,101350.81
2023-01-07T13:45:41.619Z,101354.56
2023-01-07T13:48:22.141Z,101360.19
2023-01-07T13:51:04.028Z,101350.56
2023-01-07T13:53:32.728Z,101365.13
2023-01-07T13:56:22.815Z,101362.69
2023-01-07T13:58:55.618Z,101344.00
2023-01-07T14:01:30.984Z,101358.31
2023-01-07T14:04:18.765Z,101354.91
2023-01-07T14:06:49.156Z,101353.50
2023-01-07T14:09:31.867Z,101363.78
2023-01-07T14:12:40.546Z,101348.13
2023-01-07T14:15:28.320Z,101370.97
2023-01-07T14:18:24.977Z,101361.91
2023-01-07T14:21:06.997Z,101370.31
2023-01-07T14:23:34.126Z,101371.88
2023-01-07T14:26:13.254Z,101373.72
2023-01-07T14:29:17.427Z,101376.13
2023-01-07T14:31:44.542Z,101370.03
2023-01-07T14:34:22.864Z,101350.56
2023-01-07T14:37:01.972Z,101375.00
2023-01-07T14:39:39.503Z,101372.19
2023-01-07T14:42:26.337Z,101378.88
2023-01-07T14:44:53.332Z,101375.75
2023-01-07T14:47:46.424Z,101373.63
2023-01-07T14:50:46.851Z,101369.69
2023-01-07T14:53:16.606Z,101378.34
2023-01-07T14:56:20.299Z,101382.63
2023-01-07T14:59:02.565Z,101386.16
2023-01-07T15:01:50.645Z,101388.50
2023-01-07T15:05:05.188Z,101393.88
2023-01-07T15:07:36.497Z,101385.78
2023-01-07T15:10:37.419Z,101382.97
2023-01-07T15:13:40.000Z,101385.00
2023-01-07T15:16:11.790Z,101389.72
2023-01-07T15:18:51.767Z,101390.44
2023-01-07T15:21:21.555Z,101397.50
2023-01-07T15:24:07.393Z,101393.72
2023-01-07T15:26:46.527Z,101384.84
2023-01-07T15:29:53.230Z,101384.13
2023-01-07T15:32:28.480Z,101383.28
2023-01-07T15:34:55.478Z,101386.25
2023-01-07T15:37:22.442Z,101389.22
2023-01-07T15:39:58.985Z,101390.44
2023-01-07T15:42:27.564Z,101391.25
2023-01-07T15:44:56.508Z,101393.09
2023-01-07T15:47:29.381Z,101393.91
2023-01-07T15:49:56.318Z,101385.59
2023-01-07T15:52:27.184Z,101391.88
2023-01-07T15:54:54.202Z,101384.44
2023-01-07T15:57:29.040Z,101387.78
2023-01-07T15:59:56.829Z,101356.50
2023-01-07T16:02:32.652Z,101388.44
2023-01-07T16:05:02.771Z,101382.38
2023-01-07T16:07:36.983Z,101380.44
2023-01-07T16:10:04.417Z,101384.22
2023-01-07T16:12:38.732Z,101381.31
2023-01-07T16:15:24.990Z,101384.38
2023-01-07T16:18:03.737Z,101391.00
2023-01-07T16:20:33.821Z,101381.19
2023-01-07T16:23:19.524Z,101381.97
2023-01-07T16:25:48.319Z,101374.97
2023-01-07T16:28:25.926Z,101383.88
2023-01-07T16:30:54.583Z,101389.50
2023-01-07T16:33:25.111Z,101389.84
2023-01-07T16:35:57.158Z,101393.53
2023-01-07T16:38:25.567Z,101387.78
2023-01-07T16:40:53.308Z,101372.13
2023-01-07T16:43:38.557Z,101398.16
2023-01-07T16:46:26.680Z,101404.19
2023-01-07T16:49:12.031Z,101397.84
2023-01-07T16:51:46.660Z,101399.31
2023-01-07T16:54:27.281Z,101404.81
2023-01-07T16:57:18.681Z,101396.47
2023-01-07T16:59:57.310Z,101408.78
2023-01-07T17:02:53.958Z,101403.25
2023-01-07T17:05:22.858Z,101408.28
2023-01-07T17:07:52.551Z,101414.13
2023-01-07T17:10:43.041Z,101412.56
2023-01-07T17:13:30.937Z,101412.84
2023-01-07T17:16:22.863Z,101393.47
2023-01-07T17:18:50.354Z,101401.13
2023-01-07T17:21:29.240Z,101406.03
2023-01-07T17:23:57.405Z,101410.19
2023-01-07T17:26:27.180Z,101411.78
2023-01-07T17:28:56.544Z,101426.63
2023-01-07T17:31:24.640Z,101418.44
2023-01-07T17:33:53.508Z,101417.00
2023-01-07T17:36:23.295Z,101430.72
2023-01-07T17:38:50.344Z,101421.91
2023-01-07T17:41:38.091Z,101416.22
2023-01-07T17:44:07.579Z,101420.44
2023-01-07T17:46:34.482Z,101418.16
2023-01-07T17:49:01.625Z,101424.00
2023-01-07T17:51:28.868Z,101426.50
2023-01-07T17:53:58.811Z,101409.72
2023-01-07T17:56:25.961Z,101421.59
2023-01-07T17:58:55.863Z,101420.22
2023-01-07T18:01:24.484Z,101417.00
2023-01-07T18:03:52.839Z,101416.16
2023-01-07T18:06:22.830Z,101424.00
2023-01-07T18:08:51.286Z,101420.44
2023-01-07T18:11:46.809Z,101428.28
2023-01-07T18:14:14.571Z,101432.56
2023-01-07T18:16:41.857Z,101423.44
2023-01-07T18:19:13.140Z,101422.94
2023-01-07T18:21:40.300Z,101429.00
2023-01-07T18:24:07.964Z,101427.56
2023-01-07T18:26:35.134Z,101425.88
2023-01-07T18:29:02.011Z,101425.72
2023-01-07T18:31:29.039Z,101422.72
2023-01-07T18:33:55.997Z,101422.16
2023-01-07T18:36:22.999Z,101423.78
2023-01-07T18:38:49.920Z,101418.69
2023-01-07T18:41:17.067Z,101416.34
2023-01-07T18:43:43.983Z,101430.28
2023-01-07T18:46:11.003Z,101422.84
2023-01-07T18:48:38.140Z,101409.75
2023-01-07T18:51:12.204Z,101416.88
2023-01-07T18:53:39.730Z,101410.59
2023-01-07T18:56:11.549Z,101410.28
2023-01-07T18:58:39.532Z,101412.84
2023-01-07T19:01:08.470Z,101424.69
2023-01-07T19:03:36.714Z,101417.50
2023-01-07T19:06:11.345Z,101425.91
2023-01-07T19:08:39.086Z,101430.53
2023-01-07T19:11:11.641Z,101424.38
2023-01-07T19:13:38.699Z,101403.16
2023-01-07T19:16:11.120Z,101422.69
2023-01-07T19:18:38.912Z,101420.78
2023-01-07T19:21:07.929Z,101420.97
2023-01-07T19:23:35.063Z,101419.25
2023-01-07T19:26:05.529Z,101417.34
2023-01-07T19:28:32.963Z,101412.78
2023-01-07T19:31:00.244Z,101415.00
2023-01-07T19:33:27.091Z,101414.66
2023-01-07T19:36:05.595Z,101424.16
2023-01-07T19:38:32.817Z,101416.88
2023-01-07T19:40:59.767Z,101418.50
2023-01-07T19:43:26.868Z,101411.44
2023-01-07T19:45:55.721Z,101418.72
2023-01-07T19:48:23.481Z,101421.41
2023-01-07T19:51:01.357Z,101435.41
2023-01-07T19:53:29.665Z,101434.28
2023-01-07T19:56:01.033Z,101436.69
2023-01-07T19:58:28.993Z,101438.06
2023-01-07T20:01:04.641Z,101440.88
2023-01-07T20:03:35.942Z,101431.13
2023-01-07T20:06:11.979Z,101442.41
2023-01-07T20:08:39.780Z,101438.94
2023-01-07T20:11:07.162Z,101447.28
2023-01-07T20:13:36.350Z,101451.44
2023-01-07T20:16:08.946Z,101449.56
2023-01-07T20:18:40.803Z,101441.97
2023-01-07T20:21:09.230Z,101446.91
2023-01-07T20:23:37.419Z,101448.06
2023-01-07T20:26:07.329Z,101450.28
2023-01-07T20:28:35.624Z,101445.19
2023-01-07T20:31:12.097Z,101444.16
2023-01-07T20:33:40.115Z,101449.69
2023-01-07T20:36:09.895Z,101445.16
2023-01-07T20:38:37.453Z,101458.41
2023-01-07T20:41:09.115Z,101451.56
2023-01-07T20:43:37.037Z,101443.16
2023-01-07T20:46:06.152Z,101439.41
2023-01-07T20:48:34.083Z,101450.88
2023-01-07T20:51:06.567Z,101448.75
2023-01-07T20:53:33.912Z,101441.41
2023-01-07T20:56:01.550Z,101451.81
2023-01-07T20:58:32.331Z,101424.34
2023-01-07T21:01:03.427Z,101441.50
2023-01-07T21:03:30.487Z,101437.22
2023-01-07T21:05:58.299Z,101433.94
2023-01-07T21:08:25.426Z,101436.69
2023-01-07T21:10:53.268Z,101434.88
2023-01-07T21:13:21.282Z,101439.19
2023-01-07T21:15:48.433Z,101433.84
2023-01-07T21:18:16.328Z,101417.56
2023-01-07T21:20:43.750Z,101422.16
2023-01-07T21:23:11.587Z,101425.50
2023-01-07T21:25:38.725Z,101430.72
2023-01-07T21:28:06.753Z,101435.41
2023-01-07T21:30:34.058Z,101427.31
2023-01-07T21:33:01.032Z,101423.69
2023-01-07T21:35:27.962Z,101427.94
2023-01-07T21:37:55.619Z,101419.66
2023-01-07T21:40:22.943Z,101413.16
2023-01-07T21:42:50.257Z,101416.00
2023-01-07T21:45:17.677Z,101414.44
2023-01-07T21:47:44.667Z,101396.59
2023-01-07T21:50:14.886Z,101423.41
2023-01-07T21:52:41.855Z,101411.88
2023-01-07T21:55:27.390Z,101414.16
2023-01-07T21:57:54.722Z,101422.41
2023-01-07T22:00:21.682Z,101417.16
2023-01-07T22:02:48.601Z,101418.44
2023-01-07T22:05:15.622Z,101409.03
2023-01-07T22:07:42.627Z,101409.50
2023-01-07T22:10:10.090Z,101411.66
2023-01-07T22:12:37.002Z,101405.00
2023-01-07T22:15:04.367Z,101403.50
2023-01-07T22:17:31.454Z,101411.38
2023-01-07T22:19:58.343Z,101410.66
2023-01-07T22:22:25.207Z,101406.72
2023-01-07T22:24:52.094Z,101414.22
2023-01-07T22:27:19.010Z,101410.72
2023-01-07T22:29:45.865Z,101413.28
2023-01-07T22:32:12.800Z,101409.28
2023-01-07T22:34:39.754Z,101407.00
2023-01-07T22:37:10.705Z,101404.59
2023-01-07T22:39:41.551Z,101403.41
2023-01-07T22:42:13.523Z,101409.94
2023-01-07T22:44:47.369Z,101415.72
2023-01-07T22:47:21.400Z,101422.22
2023-01-07T22:49:51.055Z,101422.41
2023-01-07T22:52:18.403Z,101426.41
2023-01-07T22:54:45.398Z,101422.34
2023-01-07T22:57:13.619Z,101427.56
2023-01-07T22:59:41.395Z,101426.28
2023-01-07T23:02:08.367Z,101434.28
2023-01-07T23:04:35.552Z,101430.13
2023-01-07T23:07:02.555Z,101431.84
2023-01-07T23:09:29.769Z,101415.59
2023-01-07T23:12:00.818Z,101421.28
2023-01-07T23:14:30.355Z,101412.84
2023-01-07T23:16:57.556Z,101416.16
2023-01-07T23:19:24.528Z,101411.72
2023-01-07T23:21:53.436Z,101411.22
2023-01-07T23:24:36.270Z,101412.06
2023-01-07T23:27:03.096Z,101416.56
2023-01-07T23:29:30.219Z,101422.94
2023-01-07T23:31:57.504Z,101420.44
2023-01-07T23:34:24.565Z,101424.91
2023-01-07T23:36:51.884Z,101416.22
2023-01-07T23:39:18.740Z,101424.84
2023-01-07T23:41:45.857Z,101421.28
2023-01-07T23:44:12.824Z,101418.28
2023-01-07T23:46:39.832Z,101423.22
2023-01-07T23:49:06.780Z,101423.72
2023-01-07T23:51:33.710Z,101415.66
2023-01-07T23:54:00.685Z,101423.28
2023-01-07T23:56:27.587Z,101419.88
2023-01-07T23:58:54.602Z,101427.50
